Decoded Metar for RCSS (TAIPEI in TAIWAN) (IATA:TSA) | Meteo·Mobile Aviation Weather
aviador You're here:

RCSS Decoded Metar

TAIPEI in TAIWAN
Report Time2019-02-19 13:00:00
UTC Time2019-02-19 13:23:26
Flight Rules vfr VFR
Wind110° at 11 kt
W.Decomp.*RWY 10: 10.7 kt HW 2.5 kt RCW
W.Rank110° ranks 3
Current wind is above 110° avg. (8.9)
Visibility9000 m
Phenomena:N/A
Clouds:Few 006 Hf
Broken 045 Hf
Expected CloudBase > 800 ft AGL from Temp-Dew spread
Ceiling4,500 ft
Temp20°C (ISA +5)
Dew Point18°C (88% RH)
AAT18.8°C
QNH1021 hPa
Density Alt614 ft
Elevation20 ft
Report Wrong Elevation
Raw Report
RCSS 191300Z 11011KT 9000 FEW006 BKN045 20/18 Q1021 NOSIG RMK
A3015=

Extra information for RCSS:More info

Metar Taf Metar & Taf Last 4 Metars F.Rules Stats Wind Profile Meteogram Temp Stats Airport Information Weather charts Add Link Nearby VenuesMetar ALERT Operation Metar Decoded Social comments